sensor_id;sensor_type;location;lat;lon;timestamp;P1;durP1;ratioP1;P2;durP2;ratioP2
4833;SDS011;12895;51.064;7.028;2023-08-20T00:01:11;11.60;;;10.50;;
4833;SDS011;12895;51.064;7.028;2023-08-20T00:03:57;10.43;;;9.63;;
4833;SDS011;12895;51.064;7.028;2023-08-20T00:06:43;11.20;;;10.23;;
4833;SDS011;12895;51.064;7.028;2023-08-20T00:09:31;11.63;;;10.73;;
4833;SDS011;12895;51.064;7.028;2023-08-20T00:12:20;11.77;;;10.53;;
4833;SDS011;12895;51.064;7.028;2023-08-20T00:15:13;10.77;;;9.70;;
4833;SDS011;12895;51.064;7.028;2023-08-20T00:18:04;11.20;;;10.30;;
4833;SDS011;12895;51.064;7.028;2023-08-20T00:21:04;10.50;;;9.60;;
4833;SDS011;12895;51.064;7.028;2023-08-20T00:24:26;10.50;;;9.67;;
4833;SDS011;12895;51.064;7.028;2023-08-20T00:27:16;10.90;;;10.10;;
4833;SDS011;12895;51.064;7.028;2023-08-20T00:30:15;11.13;;;10.23;;
4833;SDS011;12895;51.064;7.028;2023-08-20T00:33:03;9.97;;;9.30;;
4833;SDS011;12895;51.064;7.028;2023-08-20T00:36:05;10.40;;;9.50;;
4833;SDS011;12895;51.064;7.028;2023-08-20T00:38:58;10.43;;;9.40;;
4833;SDS011;12895;51.064;7.028;2023-08-20T00:41:49;10.70;;;9.90;;
4833;SDS011;12895;51.064;7.028;2023-08-20T00:44:43;11.57;;;10.57;;
4833;SDS011;12895;51.064;7.028;2023-08-20T00:47:29;13.33;;;12.13;;
4833;SDS011;12895;51.064;7.028;2023-08-20T00:50:17;10.83;;;9.93;;
4833;SDS011;12895;51.064;7.028;2023-08-20T00:53:03;10.87;;;9.97;;
4833;SDS011;12895;51.064;7.028;2023-08-20T00:55:54;11.20;;;10.20;;
4833;SDS011;12895;51.064;7.028;2023-08-20T00:58:43;11.17;;;10.17;;
4833;SDS011;12895;51.064;7.028;2023-08-20T01:01:42;11.17;;;10.27;;
4833;SDS011;12895;51.064;7.028;2023-08-20T01:04:31;11.20;;;10.30;;
4833;SDS011;12895;51.064;7.028;2023-08-20T01:07:27;11.40;;;10.50;;
4833;SDS011;12895;51.064;7.028;2023-08-20T01:10:23;11.60;;;10.40;;
4833;SDS011;12895;51.064;7.028;2023-08-20T01:13:26;11.30;;;10.23;;
4833;SDS011;12895;51.064;7.028;2023-08-20T01:16:13;12.27;;;11.23;;
4833;SDS011;12895;51.064;7.028;2023-08-20T01:19:03;12.07;;;11.07;;
4833;SDS011;12895;51.064;7.028;2023-08-20T01:21:58;11.80;;;10.80;;
4833;SDS011;12895;51.064;7.028;2023-08-20T01:25:02;12.00;;;10.90;;
4833;SDS011;12895;51.064;7.028;2023-08-20T01:27:58;12.20;;;11.17;;
4833;SDS011;12895;51.064;7.028;2023-08-20T01:30:54;11.20;;;10.30;;
4833;SDS011;12895;51.064;7.028;2023-08-20T01:33:42;10.73;;;9.70;;
4833;SDS011;12895;51.064;7.028;2023-08-20T01:36:28;11.00;;;10.00;;
4833;SDS011;12895;51.064;7.028;2023-08-20T01:39:22;10.57;;;9.67;;
4833;SDS011;12895;51.064;7.028;2023-08-20T01:42:11;10.83;;;9.73;;
4833;SDS011;12895;51.064;7.028;2023-08-20T01:44:56;10.47;;;9.57;;
4833;SDS011;12895;51.064;7.028;2023-08-20T01:47:48;11.07;;;10.10;;
4833;SDS011;12895;51.064;7.028;2023-08-20T01:50:34;11.53;;;10.33;;
4833;SDS011;12895;51.064;7.028;2023-08-20T01:53:23;11.10;;;10.20;;
4833;SDS011;12895;51.064;7.028;2023-08-20T01:56:12;12.00;;;11.00;;
4833;SDS011;12895;51.064;7.028;2023-08-20T01:58:58;13.03;;;11.43;;
4833;SDS011;12895;51.064;7.028;2023-08-20T02:01:44;11.50;;;10.50;;
4833;SDS011;12895;51.064;7.028;2023-08-20T02:04:30;12.30;;;11.10;;
4833;SDS011;12895;51.064;7.028;2023-08-20T02:07:16;11.87;;;10.87;;
4833;SDS011;12895;51.064;7.028;2023-08-20T02:10:04;10.83;;;9.93;;
4833;SDS011;12895;51.064;7.028;2023-08-20T02:12:50;11.77;;;10.67;;
4833;SDS011;12895;51.064;7.028;2023-08-20T02:15:36;12.20;;;11.00;;
4833;SDS011;12895;51.064;7.028;2023-08-20T02:18:21;12.13;;;11.00;;
4833;SDS011;12895;51.064;7.028;2023-08-20T02:21:08;10.90;;;9.90;;
4833;SDS011;12895;51.064;7.028;2023-08-20T02:23:53;11.00;;;10.10;;
4833;SDS011;12895;51.064;7.028;2023-08-20T02:26:39;11.80;;;10.80;;
4833;SDS011;12895;51.064;7.028;2023-08-20T02:29:24;11.40;;;10.30;;
4833;SDS011;12895;51.064;7.028;2023-08-20T02:32:10;11.47;;;10.60;;
4833;SDS011;12895;51.064;7.028;2023-08-20T02:34:55;11.53;;;10.63;;
4833;SDS011;12895;51.064;7.028;2023-08-20T02:37:45;11.50;;;10.60;;
4833;SDS011;12895;51.064;7.028;2023-08-20T02:40:31;11.33;;;10.20;;
4833;SDS011;12895;51.064;7.028;2023-08-20T02:43:17;11.60;;;10.50;;
4833;SDS011;12895;51.064;7.028;2023-08-20T02:46:02;11.30;;;10.50;;
4833;SDS011;12895;51.064;7.028;2023-08-20T02:48:47;12.07;;;11.17;;
4833;SDS011;12895;51.064;7.028;2023-08-20T02:51:35;13.23;;;10.60;;
4833;SDS011;12895;51.064;7.028;2023-08-20T02:54:22;11.50;;;10.60;;
4833;SDS011;12895;51.064;7.028;2023-08-20T02:57:09;11.37;;;10.33;;
4833;SDS011;12895;51.064;7.028;2023-08-20T02:59:57;11.03;;;10.13;;
4833;SDS011;12895;51.064;7.028;2023-08-20T03:02:42;11.47;;;10.50;;
4833;SDS011;12895;51.064;7.028;2023-08-20T03:05:31;11.77;;;10.80;;
4833;SDS011;12895;51.064;7.028;2023-08-20T03:08:26;13.50;;;12.40;;
4833;SDS011;12895;51.064;7.028;2023-08-20T03:11:17;12.43;;;11.23;;
4833;SDS011;12895;51.064;7.028;2023-08-20T03:14:11;12.97;;;11.87;;
4833;SDS011;12895;51.064;7.028;2023-08-20T03:16:59;13.13;;;12.10;;
4833;SDS011;12895;51.064;7.028;2023-08-20T03:19:53;13.00;;;12.10;;
4833;SDS011;12895;51.064;7.028;2023-08-20T03:22:39;12.40;;;11.30;;
4833;SDS011;12895;51.064;7.028;2023-08-20T03:25:26;12.43;;;11.43;;
4833;SDS011;12895;51.064;7.028;2023-08-20T03:28:13;14.10;;;13.10;;
4833;SDS011;12895;51.064;7.028;2023-08-20T03:30:59;12.70;;;11.60;;
4833;SDS011;12895;51.064;7.028;2023-08-20T03:33:51;11.97;;;11.10;;
4833;SDS011;12895;51.064;7.028;2023-08-20T03:36:41;13.13;;;11.93;;
4833;SDS011;12895;51.064;7.028;2023-08-20T03:39:32;13.67;;;12.40;;
4833;SDS011;12895;51.064;7.028;2023-08-20T03:42:18;14.00;;;12.90;;
4833;SDS011;12895;51.064;7.028;2023-08-20T03:45:08;13.07;;;11.90;;
4833;SDS011;12895;51.064;7.028;2023-08-20T03:47:55;13.17;;;11.53;;
4833;SDS011;12895;51.064;7.028;2023-08-20T03:50:40;13.00;;;11.70;;
4833;SDS011;12895;51.064;7.028;2023-08-20T03:53:26;11.80;;;10.80;;
4833;SDS011;12895;51.064;7.028;2023-08-20T03:56:14;12.90;;;11.90;;
4833;SDS011;12895;51.064;7.028;2023-08-20T03:59:01;13.53;;;12.43;;
4833;SDS011;12895;51.064;7.028;2023-08-20T04:01:49;12.33;;;11.23;;
4833;SDS011;12895;51.064;7.028;2023-08-20T04:04:35;13.53;;;11.40;;
4833;SDS011;12895;51.064;7.028;2023-08-20T04:07:24;13.13;;;12.07;;
4833;SDS011;12895;51.064;7.028;2023-08-20T04:10:10;13.67;;;12.50;;
4833;SDS011;12895;51.064;7.028;2023-08-20T04:12:59;13.27;;;11.97;;
4833;SDS011;12895;51.064;7.028;2023-08-20T04:15:46;12.70;;;11.60;;
4833;SDS011;12895;51.064;7.028;2023-08-20T04:18:36;13.27;;;12.17;;
4833;SDS011;12895;51.064;7.028;2023-08-20T04:21:22;14.63;;;13.23;;
4833;SDS011;12895;51.064;7.028;2023-08-20T04:24:07;13.50;;;12.50;;
4833;SDS011;12895;51.064;7.028;2023-08-20T04:26:53;14.20;;;13.10;;
4833;SDS011;12895;51.064;7.028;2023-08-20T04:29:43;14.10;;;12.90;;
4833;SDS011;12895;51.064;7.028;2023-08-20T04:32:32;14.27;;;13.10;;
4833;SDS011;12895;51.064;7.028;2023-08-20T04:35:20;13.93;;;12.73;;
4833;SDS011;12895;51.064;7.028;2023-08-20T04:38:16;13.40;;;12.30;;
4833;SDS011;12895;51.064;7.028;2023-08-20T04:41:08;13.67;;;12.47;;
4833;SDS011;12895;51.064;7.028;2023-08-20T04:44:04;14.00;;;13.00;;
4833;SDS011;12895;51.064;7.028;2023-08-20T04:46:57;15.17;;;13.73;;
4833;SDS011;12895;51.064;7.028;2023-08-20T04:49:57;17.27;;;15.73;;
4833;SDS011;12895;51.064;7.028;2023-08-20T04:56:05;16.63;;;14.93;;
4833;SDS011;12895;51.064;7.028;2023-08-20T04:58:53;14.30;;;13.10;;
4833;SDS011;12895;51.064;7.028;2023-08-20T05:02:14;13.97;;;12.87;;
4833;SDS011;12895;51.064;7.028;2023-08-20T05:05:07;13.83;;;12.50;;
4833;SDS011;12895;51.064;7.028;2023-08-20T05:07:57;14.90;;;13.43;;
4833;SDS011;12895;51.064;7.028;2023-08-20T05:10:56;13.47;;;12.37;;
4833;SDS011;12895;51.064;7.028;2023-08-20T05:13:47;14.53;;;13.23;;
4833;SDS011;12895;51.064;7.028;2023-08-20T05:16:43;15.23;;;13.60;;
4833;SDS011;12895;51.064;7.028;2023-08-20T05:19:34;15.17;;;13.77;;
4833;SDS011;12895;51.064;7.028;2023-08-20T05:22:30;13.83;;;12.83;;
4833;SDS011;12895;51.064;7.028;2023-08-20T05:28:22;17.67;;;14.73;;
4833;SDS011;12895;51.064;7.028;2023-08-20T05:31:17;13.80;;;12.50;;
4833;SDS011;12895;51.064;7.028;2023-08-20T05:34:14;13.70;;;12.50;;
4833;SDS011;12895;51.064;7.028;2023-08-20T05:37:00;14.60;;;13.30;;
4833;SDS011;12895;51.064;7.028;2023-08-20T05:39:51;14.50;;;13.17;;
4833;SDS011;12895;51.064;7.028;2023-08-20T05:42:45;14.57;;;13.37;;
4833;SDS011;12895;51.064;7.028;2023-08-20T05:45:41;13.20;;;12.20;;
4833;SDS011;12895;51.064;7.028;2023-08-20T05:48:35;13.33;;;12.33;;
4833;SDS011;12895;51.064;7.028;2023-08-20T05:51:39;13.87;;;12.70;;
4833;SDS011;12895;51.064;7.028;2023-08-20T05:54:36;13.10;;;12.10;;
4833;SDS011;12895;51.064;7.028;2023-08-20T05:57:24;14.23;;;12.93;;
4833;SDS011;12895;51.064;7.028;2023-08-20T06:00:22;11.70;;;10.70;;
4833;SDS011;12895;51.064;7.028;2023-08-20T06:03:21;13.03;;;11.83;;
4833;SDS011;12895;51.064;7.028;2023-08-20T06:06:18;13.40;;;12.20;;
4833;SDS011;12895;51.064;7.028;2023-08-20T06:09:04;12.97;;;11.97;;
4833;SDS011;12895;51.064;7.028;2023-08-20T06:11:57;13.93;;;12.93;;
4833;SDS011;12895;51.064;7.028;2023-08-20T06:14:45;13.40;;;12.30;;
4833;SDS011;12895;51.064;7.028;2023-08-20T06:17:43;15.73;;;11.10;;
4833;SDS011;12895;51.064;7.028;2023-08-20T06:20:32;12.97;;;11.90;;
4833;SDS011;12895;51.064;7.028;2023-08-20T06:23:29;13.87;;;12.57;;
4833;SDS011;12895;51.064;7.028;2023-08-20T06:26:20;14.40;;;13.20;;
4833;SDS011;12895;51.064;7.028;2023-08-20T06:29:08;13.50;;;12.20;;
4833;SDS011;12895;51.064;7.028;2023-08-20T06:32:03;13.70;;;12.60;;
4833;SDS011;12895;51.064;7.028;2023-08-20T06:35:06;14.20;;;13.10;;
4833;SDS011;12895;51.064;7.028;2023-08-20T06:37:57;13.83;;;12.63;;
4833;SDS011;12895;51.064;7.028;2023-08-20T06:40:58;15.17;;;13.97;;
4833;SDS011;12895;51.064;7.028;2023-08-20T06:43:44;14.73;;;13.43;;
4833;SDS011;12895;51.064;7.028;2023-08-20T06:46:37;14.93;;;13.73;;
4833;SDS011;12895;51.064;7.028;2023-08-20T06:49:40;14.97;;;13.87;;
4833;SDS011;12895;51.064;7.028;2023-08-20T06:52:42;15.00;;;13.50;;
4833;SDS011;12895;51.064;7.028;2023-08-20T06:55:29;13.73;;;12.60;;
4833;SDS011;12895;51.064;7.028;2023-08-20T06:58:14;14.50;;;13.10;;
4833;SDS011;12895;51.064;7.028;2023-08-20T07:01:14;13.07;;;11.93;;
4833;SDS011;12895;51.064;7.028;2023-08-20T07:04:02;13.50;;;12.40;;
4833;SDS011;12895;51.064;7.028;2023-08-20T07:06:47;13.90;;;12.70;;
4833;SDS011;12895;51.064;7.028;2023-08-20T07:09:33;13.57;;;12.53;;
4833;SDS011;12895;51.064;7.028;2023-08-20T07:12:20;13.67;;;12.57;;
4833;SDS011;12895;51.064;7.028;2023-08-20T07:15:05;11.90;;;11.10;;
4833;SDS011;12895;51.064;7.028;2023-08-20T07:17:52;13.60;;;12.50;;
4833;SDS011;12895;51.064;7.028;2023-08-20T07:20:53;11.70;;;10.77;;
4833;SDS011;12895;51.064;7.028;2023-08-20T07:23:41;12.80;;;11.90;;
4833;SDS011;12895;51.064;7.028;2023-08-20T07:26:27;12.33;;;11.20;;
4833;SDS011;12895;51.064;7.028;2023-08-20T07:29:14;13.07;;;11.97;;
4833;SDS011;12895;51.064;7.028;2023-08-20T07:32:00;12.17;;;11.10;;
4833;SDS011;12895;51.064;7.028;2023-08-20T07:34:47;11.17;;;10.27;;
4833;SDS011;12895;51.064;7.028;2023-08-20T07:37:34;13.70;;;12.30;;
4833;SDS011;12895;51.064;7.028;2023-08-20T07:40:23;14.17;;;12.80;;
4833;SDS011;12895;51.064;7.028;2023-08-20T07:43:12;12.80;;;11.90;;
4833;SDS011;12895;51.064;7.028;2023-08-20T07:46:10;13.23;;;12.00;;
4833;SDS011;12895;51.064;7.028;2023-08-20T07:48:56;11.60;;;10.50;;
4833;SDS011;12895;51.064;7.028;2023-08-20T07:51:41;16.33;;;15.00;;
4833;SDS011;12895;51.064;7.028;2023-08-20T07:54:27;17.87;;;16.20;;
4833;SDS011;12895;51.064;7.028;2023-08-20T07:57:12;18.07;;;16.10;;
4833;SDS011;12895;51.064;7.028;2023-08-20T07:59:58;17.07;;;15.60;;
4833;SDS011;12895;51.064;7.028;2023-08-20T08:02:44;16.10;;;14.80;;
4833;SDS011;12895;51.064;7.028;2023-08-20T08:05:30;16.47;;;14.90;;
4833;SDS011;12895;51.064;7.028;2023-08-20T08:08:15;17.77;;;16.27;;
4833;SDS011;12895;51.064;7.028;2023-08-20T08:11:01;19.43;;;17.50;;
4833;SDS011;12895;51.064;7.028;2023-08-20T08:13:46;15.43;;;14.13;;
4833;SDS011;12895;51.064;7.028;2023-08-20T08:16:32;16.60;;;15.20;;
4833;SDS011;12895;51.064;7.028;2023-08-20T08:19:18;17.30;;;15.73;;
4833;SDS011;12895;51.064;7.028;2023-08-20T08:22:04;17.03;;;15.50;;
4833;SDS011;12895;51.064;7.028;2023-08-20T08:24:50;15.57;;;14.30;;
4833;SDS011;12895;51.064;7.028;2023-08-20T08:27:35;15.80;;;14.50;;
4833;SDS011;12895;51.064;7.028;2023-08-20T08:30:20;17.40;;;16.00;;
4833;SDS011;12895;51.064;7.028;2023-08-20T08:33:06;14.90;;;13.70;;
4833;SDS011;12895;51.064;7.028;2023-08-20T08:35:53;17.40;;;14.77;;
4833;SDS011;12895;51.064;7.028;2023-08-20T08:38:40;14.50;;;13.50;;
4833;SDS011;12895;51.064;7.028;2023-08-20T08:41:26;15.23;;;13.80;;
4833;SDS011;12895;51.064;7.028;2023-08-20T08:44:23;16.43;;;14.80;;
4833;SDS011;12895;51.064;7.028;2023-08-20T08:47:21;15.87;;;14.50;;
4833;SDS011;12895;51.064;7.028;2023-08-20T08:50:15;17.60;;;15.93;;
4833;SDS011;12895;51.064;7.028;2023-08-20T08:53:02;12.70;;;11.70;;
4833;SDS011;12895;51.064;7.028;2023-08-20T08:55:48;15.03;;;12.20;;
4833;SDS011;12895;51.064;7.028;2023-08-20T08:58:48;12.97;;;11.87;;
4833;SDS011;12895;51.064;7.028;2023-08-20T09:01:38;12.80;;;11.80;;
4833;SDS011;12895;51.064;7.028;2023-08-20T09:04:25;13.10;;;12.10;;
4833;SDS011;12895;51.064;7.028;2023-08-20T09:07:11;10.83;;;9.93;;
4833;SDS011;12895;51.064;7.028;2023-08-20T09:09:59;12.07;;;10.97;;
4833;SDS011;12895;51.064;7.028;2023-08-20T09:12:44;11.30;;;10.43;;
4833;SDS011;12895;51.064;7.028;2023-08-20T09:15:33;11.80;;;10.60;;
4833;SDS011;12895;51.064;7.028;2023-08-20T09:18:19;12.17;;;11.20;;
4833;SDS011;12895;51.064;7.028;2023-08-20T09:21:06;11.17;;;10.30;;
4833;SDS011;12895;51.064;7.028;2023-08-20T09:23:52;10.37;;;9.43;;
4833;SDS011;12895;51.064;7.028;2023-08-20T09:27:01;10.97;;;10.07;;
4833;SDS011;12895;51.064;7.028;2023-08-20T09:29:54;11.00;;;10.20;;
4833;SDS011;12895;51.064;7.028;2023-08-20T09:32:43;10.53;;;9.67;;
4833;SDS011;12895;51.064;7.028;2023-08-20T09:35:45;12.27;;;11.47;;
4833;SDS011;12895;51.064;7.028;2023-08-20T09:38:41;10.73;;;10.03;;
4833;SDS011;12895;51.064;7.028;2023-08-20T09:41:33;11.53;;;10.63;;
4833;SDS011;12895;51.064;7.028;2023-08-20T09:44:23;11.50;;;10.67;;
4833;SDS011;12895;51.064;7.028;2023-08-20T09:47:11;12.63;;;11.40;;
4833;SDS011;12895;51.064;7.028;2023-08-20T09:49:57;11.87;;;10.97;;
4833;SDS011;12895;51.064;7.028;2023-08-20T09:52:44;10.67;;;9.87;;
4833;SDS011;12895;51.064;7.028;2023-08-20T09:55:33;10.60;;;9.80;;
4833;SDS011;12895;51.064;7.028;2023-08-20T09:58:23;8.07;;;7.50;;
4833;SDS011;12895;51.064;7.028;2023-08-20T10:01:21;9.97;;;9.27;;
4833;SDS011;12895;51.064;7.028;2023-08-20T10:04:08;10.13;;;9.23;;
4833;SDS011;12895;51.064;7.028;2023-08-20T10:06:56;10.30;;;9.63;;
4833;SDS011;12895;51.064;7.028;2023-08-20T10:09:45;10.30;;;9.50;;
4833;SDS011;12895;51.064;7.028;2023-08-20T10:12:31;10.60;;;9.80;;
4833;SDS011;12895;51.064;7.028;2023-08-20T10:15:17;9.10;;;8.27;;
4833;SDS011;12895;51.064;7.028;2023-08-20T10:18:05;9.07;;;8.37;;
4833;SDS011;12895;51.064;7.028;2023-08-20T10:20:52;10.40;;;9.50;;
4833;SDS011;12895;51.064;7.028;2023-08-20T10:23:40;9.97;;;9.23;;
4833;SDS011;12895;51.064;7.028;2023-08-20T10:26:29;11.10;;;10.20;;
4833;SDS011;12895;51.064;7.028;2023-08-20T10:29:36;10.97;;;10.20;;
4833;SDS011;12895;51.064;7.028;2023-08-20T10:35:47;11.40;;;10.50;;
4833;SDS011;12895;51.064;7.028;2023-08-20T10:38:42;12.23;;;10.30;;
4833;SDS011;12895;51.064;7.028;2023-08-20T10:41:38;11.10;;;10.20;;
4833;SDS011;12895;51.064;7.028;2023-08-20T10:44:44;10.00;;;9.10;;
4833;SDS011;12895;51.064;7.028;2023-08-20T10:48:03;9.90;;;9.17;;
4833;SDS011;12895;51.064;7.028;2023-08-20T10:51:24;11.60;;;10.80;;
4833;SDS011;12895;51.064;7.028;2023-08-20T10:54:31;10.57;;;9.63;;
4833;SDS011;12895;51.064;7.028;2023-08-20T10:57:32;10.23;;;9.53;;
4833;SDS011;12895;51.064;7.028;2023-08-20T11:00:28;12.50;;;11.50;;
4833;SDS011;12895;51.064;7.028;2023-08-20T11:03:56;11.90;;;11.10;;
4833;SDS011;12895;51.064;7.028;2023-08-20T11:07:05;11.50;;;10.50;;
4833;SDS011;12895;51.064;7.028;2023-08-20T11:10:04;11.17;;;10.37;;
4833;SDS011;12895;51.064;7.028;2023-08-20T11:13:33;11.13;;;10.33;;
4833;SDS011;12895;51.064;7.028;2023-08-20T11:16:29;11.23;;;10.50;;
4833;SDS011;12895;51.064;7.028;2023-08-20T11:19:22;10.27;;;9.40;;
4833;SDS011;12895;51.064;7.028;2023-08-20T11:22:21;9.77;;;9.10;;
4833;SDS011;12895;51.064;7.028;2023-08-20T11:25:14;10.00;;;9.30;;
4833;SDS011;12895;51.064;7.028;2023-08-20T11:28:21;10.10;;;9.40;;
4833;SDS011;12895;51.064;7.028;2023-08-20T11:31:10;11.10;;;10.30;;
4833;SDS011;12895;51.064;7.028;2023-08-20T11:34:04;11.40;;;10.17;;
4833;SDS011;12895;51.064;7.028;2023-08-20T11:36:56;10.47;;;9.30;;
4833;SDS011;12895;51.064;7.028;2023-08-20T11:39:46;10.03;;;9.23;;
4833;SDS011;12895;51.064;7.028;2023-08-20T11:42:33;9.87;;;9.17;;
4833;SDS011;12895;51.064;7.028;2023-08-20T11:45:18;10.60;;;9.80;;
4833;SDS011;12895;51.064;7.028;2023-08-20T11:48:08;10.27;;;9.57;;
4833;SDS011;12895;51.064;7.028;2023-08-20T11:50:55;9.83;;;9.13;;
4833;SDS011;12895;51.064;7.028;2023-08-20T11:53:49;10.13;;;9.30;;
4833;SDS011;12895;51.064;7.028;2023-08-20T11:56:43;10.60;;;9.70;;
4833;SDS011;12895;51.064;7.028;2023-08-20T11:59:30;10.10;;;9.37;;
4833;SDS011;12895;51.064;7.028;2023-08-20T12:02:24;10.20;;;9.50;;
4833;SDS011;12895;51.064;7.028;2023-08-20T12:05:20;9.90;;;9.20;;
4833;SDS011;12895;51.064;7.028;2023-08-20T12:08:19;10.10;;;9.50;;
4833;SDS011;12895;51.064;7.028;2023-08-20T12:11:12;9.33;;;8.70;;
4833;SDS011;12895;51.064;7.028;2023-08-20T12:14:11;9.70;;;9.10;;
4833;SDS011;12895;51.064;7.028;2023-08-20T12:17:05;9.40;;;8.70;;
4833;SDS011;12895;51.064;7.028;2023-08-20T12:19:53;11.10;;;10.30;;
4833;SDS011;12895;51.064;7.028;2023-08-20T12:22:50;10.00;;;9.20;;
4833;SDS011;12895;51.064;7.028;2023-08-20T12:25:50;10.50;;;9.80;;
4833;SDS011;12895;51.064;7.028;2023-08-20T12:28:48;9.60;;;9.00;;
4833;SDS011;12895;51.064;7.028;2023-08-20T12:31:48;11.33;;;10.53;;
4833;SDS011;12895;51.064;7.028;2023-08-20T12:34:41;12.07;;;11.07;;
4833;SDS011;12895;51.064;7.028;2023-08-20T12:37:29;10.97;;;10.07;;
4833;SDS011;12895;51.064;7.028;2023-08-20T12:40:15;10.67;;;9.77;;
4833;SDS011;12895;51.064;7.028;2023-08-20T12:43:00;9.70;;;9.00;;
4833;SDS011;12895;51.064;7.028;2023-08-20T12:45:51;9.77;;;8.90;;
4833;SDS011;12895;51.064;7.028;2023-08-20T12:48:43;9.40;;;8.90;;
4833;SDS011;12895;51.064;7.028;2023-08-20T12:51:40;9.60;;;9.00;;
4833;SDS011;12895;51.064;7.028;2023-08-20T12:54:28;8.97;;;8.23;;
4833;SDS011;12895;51.064;7.028;2023-08-20T12:57:13;9.80;;;9.20;;
4833;SDS011;12895;51.064;7.028;2023-08-20T13:00:04;9.60;;;8.90;;
4833;SDS011;12895;51.064;7.028;2023-08-20T13:02:55;10.30;;;9.10;;
4833;SDS011;12895;51.064;7.028;2023-08-20T13:05:49;9.80;;;8.90;;
4833;SDS011;12895;51.064;7.028;2023-08-20T13:08:41;8.90;;;8.30;;
4833;SDS011;12895;51.064;7.028;2023-08-20T13:11:32;10.30;;;8.60;;
4833;SDS011;12895;51.064;7.028;2023-08-20T13:14:21;8.13;;;7.63;;
4833;SDS011;12895;51.064;7.028;2023-08-20T13:17:45;8.13;;;7.63;;
4833;SDS011;12895;51.064;7.028;2023-08-20T13:20:36;8.03;;;7.53;;
4833;SDS011;12895;51.064;7.028;2023-08-20T13:23:41;7.77;;;7.23;;
4833;SDS011;12895;51.064;7.028;2023-08-20T13:26:42;7.73;;;7.13;;
4833;SDS011;12895;51.064;7.028;2023-08-20T13:29:34;7.50;;;7.00;;
4833;SDS011;12895;51.064;7.028;2023-08-20T13:32:24;7.80;;;7.30;;
4833;SDS011;12895;51.064;7.028;2023-08-20T13:35:35;8.30;;;7.70;;
4833;SDS011;12895;51.064;7.028;2023-08-20T13:45:12;6.63;;;6.30;;
4833;SDS011;12895;51.064;7.028;2023-08-20T13:58:46;7.27;;;6.80;;
4833;SDS011;12895;51.064;7.028;2023-08-20T14:01:57;7.50;;;7.00;;
4833;SDS011;12895;51.064;7.028;2023-08-20T14:04:54;7.53;;;6.93;;
4833;SDS011;12895;51.064;7.028;2023-08-20T14:07:51;8.10;;;7.50;;
4833;SDS011;12895;51.064;7.028;2023-08-20T14:10:39;7.70;;;7.20;;
4833;SDS011;12895;51.064;7.028;2023-08-20T14:13:24;7.73;;;7.10;;
4833;SDS011;12895;51.064;7.028;2023-08-20T14:16:19;8.10;;;7.60;;
4833;SDS011;12895;51.064;7.028;2023-08-20T14:19:12;7.60;;;7.00;;
4833;SDS011;12895;51.064;7.028;2023-08-20T14:22:03;7.67;;;6.97;;
4833;SDS011;12895;51.064;7.028;2023-08-20T14:24:53;7.93;;;7.33;;
4833;SDS011;12895;51.064;7.028;2023-08-20T14:27:43;7.73;;;7.33;;
4833;SDS011;12895;51.064;7.028;2023-08-20T14:30:28;8.23;;;7.63;;
4833;SDS011;12895;51.064;7.028;2023-08-20T14:33:27;7.67;;;7.17;;
4833;SDS011;12895;51.064;7.028;2023-08-20T14:36:14;8.80;;;8.20;;
4833;SDS011;12895;51.064;7.028;2023-08-20T14:39:05;9.40;;;8.70;;
4833;SDS011;12895;51.064;7.028;2023-08-20T14:41:53;9.07;;;8.40;;
4833;SDS011;12895;51.064;7.028;2023-08-20T14:44:43;9.00;;;8.40;;
4833;SDS011;12895;51.064;7.028;2023-08-20T14:47:42;8.30;;;7.70;;
4833;SDS011;12895;51.064;7.028;2023-08-20T14:50:47;8.87;;;8.17;;
4833;SDS011;12895;51.064;7.028;2023-08-20T14:57:17;8.03;;;7.63;;
4833;SDS011;12895;51.064;7.028;2023-08-20T15:00:20;8.40;;;7.90;;
4833;SDS011;12895;51.064;7.028;2023-08-20T15:03:09;7.70;;;6.97;;
4833;SDS011;12895;51.064;7.028;2023-08-20T15:05:54;7.40;;;7.00;;
4833;SDS011;12895;51.064;7.028;2023-08-20T15:08:58;7.27;;;6.77;;
4833;SDS011;12895;51.064;7.028;2023-08-20T15:11:49;6.73;;;6.33;;
4833;SDS011;12895;51.064;7.028;2023-08-20T15:14:35;5.90;;;5.50;;
4833;SDS011;12895;51.064;7.028;2023-08-20T15:17:27;7.00;;;6.50;;
4833;SDS011;12895;51.064;7.028;2023-08-20T15:20:15;6.73;;;6.43;;
4833;SDS011;12895;51.064;7.028;2023-08-20T15:23:16;6.93;;;6.33;;
4833;SDS011;12895;51.064;7.028;2023-08-20T15:26:17;8.47;;;6.07;;
4833;SDS011;12895;51.064;7.028;2023-08-20T15:29:34;6.03;;;5.53;;
4833;SDS011;12895;51.064;7.028;2023-08-20T15:32:43;6.17;;;5.67;;
4833;SDS011;12895;51.064;7.028;2023-08-20T15:35:49;6.20;;;5.83;;
4833;SDS011;12895;51.064;7.028;2023-08-20T15:38:44;5.97;;;5.53;;
4833;SDS011;12895;51.064;7.028;2023-08-20T15:41:45;5.70;;;5.30;;
4833;SDS011;12895;51.064;7.028;2023-08-20T15:44:49;6.13;;;5.63;;
4833;SDS011;12895;51.064;7.028;2023-08-20T15:48:01;6.80;;;6.30;;
4833;SDS011;12895;51.064;7.028;2023-08-20T15:51:03;5.83;;;5.43;;
4833;SDS011;12895;51.064;7.028;2023-08-20T15:54:03;5.77;;;5.47;;
4833;SDS011;12895;51.064;7.028;2023-08-20T15:57:06;5.93;;;5.40;;
4833;SDS011;12895;51.064;7.028;2023-08-20T15:59:58;6.10;;;5.73;;
4833;SDS011;12895;51.064;7.028;2023-08-20T16:02:52;5.73;;;5.40;;
4833;SDS011;12895;51.064;7.028;2023-08-20T16:05:39;5.53;;;5.20;;
4833;SDS011;12895;51.064;7.028;2023-08-20T16:08:25;5.77;;;5.37;;
4833;SDS011;12895;51.064;7.028;2023-08-20T16:11:11;5.77;;;5.37;;
4833;SDS011;12895;51.064;7.028;2023-08-20T16:13:56;6.40;;;5.80;;
4833;SDS011;12895;51.064;7.028;2023-08-20T16:16:51;6.33;;;5.93;;
4833;SDS011;12895;51.064;7.028;2023-08-20T16:19:36;5.80;;;5.50;;
4833;SDS011;12895;51.064;7.028;2023-08-20T16:22:23;6.20;;;5.83;;
4833;SDS011;12895;51.064;7.028;2023-08-20T16:25:09;5.80;;;5.33;;
4833;SDS011;12895;51.064;7.028;2023-08-20T16:27:54;6.60;;;6.10;;
4833;SDS011;12895;51.064;7.028;2023-08-20T16:30:43;6.80;;;6.40;;
4833;SDS011;12895;51.064;7.028;2023-08-20T16:33:32;7.97;;;7.47;;
4833;SDS011;12895;51.064;7.028;2023-08-20T16:36:25;6.47;;;5.93;;
4833;SDS011;12895;51.064;7.028;2023-08-20T16:39:14;5.77;;;5.47;;
4833;SDS011;12895;51.064;7.028;2023-08-20T16:41:59;5.90;;;5.60;;
4833;SDS011;12895;51.064;7.028;2023-08-20T16:44:44;6.50;;;6.10;;
4833;SDS011;12895;51.064;7.028;2023-08-20T16:47:30;6.00;;;5.60;;
4833;SDS011;12895;51.064;7.028;2023-08-20T16:50:20;5.70;;;5.30;;
4833;SDS011;12895;51.064;7.028;2023-08-20T16:53:17;6.37;;;5.97;;
4833;SDS011;12895;51.064;7.028;2023-08-20T16:56:15;5.37;;;5.07;;
4833;SDS011;12895;51.064;7.028;2023-08-20T16:59:13;6.53;;;6.03;;
4833;SDS011;12895;51.064;7.028;2023-08-20T17:02:01;5.90;;;5.40;;
4833;SDS011;12895;51.064;7.028;2023-08-20T17:04:56;5.37;;;4.97;;
4833;SDS011;12895;51.064;7.028;2023-08-20T17:07:59;6.07;;;5.67;;
4833;SDS011;12895;51.064;7.028;2023-08-20T17:11:05;5.90;;;5.50;;
4833;SDS011;12895;51.064;7.028;2023-08-20T17:13:58;6.30;;;5.80;;
4833;SDS011;12895;51.064;7.028;2023-08-20T17:16:45;5.90;;;5.50;;
4833;SDS011;12895;51.064;7.028;2023-08-20T17:19:30;5.67;;;5.27;;
4833;SDS011;12895;51.064;7.028;2023-08-20T17:22:15;6.23;;;5.73;;
4833;SDS011;12895;51.064;7.028;2023-08-20T17:25:01;6.20;;;5.70;;
4833;SDS011;12895;51.064;7.028;2023-08-20T17:27:47;6.37;;;5.87;;
4833;SDS011;12895;51.064;7.028;2023-08-20T17:30:39;6.53;;;5.93;;
4833;SDS011;12895;51.064;7.028;2023-08-20T17:33:32;6.20;;;5.70;;
4833;SDS011;12895;51.064;7.028;2023-08-20T17:36:26;6.10;;;5.60;;
4833;SDS011;12895;51.064;7.028;2023-08-20T17:39:17;5.40;;;5.00;;
4833;SDS011;12895;51.064;7.028;2023-08-20T17:42:07;5.60;;;5.20;;